Time;durP1;ratioP1;P1;durP2;ratioP2;P2;SDS_P1;SDS_P2;PMS_P1;PMS_P2;Temp;Humidity;BMP_temperature;BMP_pressure;BME280_temperature;BME280_humidity;BME280_pressure;Samples;Min_cycle;Max_cycle;Signal;HPM_P1;HPM_P2
2022/09/22 00:01:03;;;;;;;;;;;;;;;9.04;71.57;100636.09;1086056;54;19946;-78
2022/09/22 00:02:07;;;;;;;;;;;;;;;9.10;71.05;100632.91;1085699;54;19947;-79
2022/09/22 00:03:08;;;;;;;;;;;;;;;9.06;71.45;100634.16;1086256;54;20841;-79
2022/09/22 00:04:12;;;;;;;;;;;;;;;8.97;72.35;100637.53;1084911;54;19951;-79
2022/09/22 00:05:13;;;;;;;;;;;;;;;8.97;72.41;100629.53;1085901;54;19951;-79
2022/09/22 00:06:18;;;;;;;;;;;;;;;8.89;72.52;100628.28;1086154;54;20001;-79
2022/09/22 00:07:19;;;;;;;;;;;;;;;8.88;72.79;100629.25;1085940;54;19943;-79
2022/09/22 00:08:23;;;;;;;;;;;;;;;8.87;72.64;100627.59;1085843;54;19954;-79
2022/09/22 00:09:27;;;;;;;;;;;;;;;8.85;72.46;100629.53;1086083;54;20558;-79
2022/09/22 00:10:31;;;;;;;;;;;;;;;8.85;72.83;100634.00;1086571;31;20534;-79
2022/09/22 00:11:34;;;;;;;;;;;;;;;8.82;72.84;100619.09;1085746;54;19958;-78
2022/09/22 00:12:38;;;;;;;;;;;;;;;8.87;72.93;100619.59;1086079;54;19995;-79
2022/09/22 00:13:40;;;;;;;;;;;;;;;8.97;72.10;100621.53;1085915;54;19950;-79
2022/09/22 00:14:44;;;;;;;;;;;;;;;9.04;71.67;100626.25;1086073;54;19966;-79
2022/09/22 00:15:45;;;;;;;;;;;;;;;9.06;71.94;100623.47;1085792;54;19958;-79
2022/09/22 00:16:49;;;;;;;;;;;;;;;9.11;71.71;100623.94;1085889;54;19953;-79
2022/09/22 00:17:51;;;;;;;;;;;;;;;9.19;70.78;100620.69;1085953;54;19977;-78
2022/09/22 00:18:54;;;;;;;;;;;;;;;9.28;70.76;100621.75;1086057;54;20002;-79
2022/09/22 00:19:56;;;;;;;;;;;;;;;9.30;70.77;100625.16;1085979;54;19969;-79
2022/09/22 00:20:59;;;;;;;;;;;;;;;9.35;70.28;100620.31;1086097;54;19935;-79
2022/09/22 00:22:00;;;;;;;;;;;;;;;9.38;69.94;100613.88;1085857;54;19948;-79
2022/09/22 00:23:04;;;;;;;;;;;;;;;9.41;70.07;100619.81;1085964;54;19998;-78
2022/09/22 00:24:06;;;;;;;;;;;;;;;9.43;69.70;100612.53;1086078;54;20010;-79
2022/09/22 00:25:13;;;;;;;;;;;;;;;9.43;70.11;100623.22;1085846;54;19946;-79
2022/09/22 00:26:17;;;;;;;;;;;;;;;9.44;69.94;100610.72;1086046;54;19953;-79
2022/09/22 00:27:20;;;;;;;;;;;;;;;9.47;69.70;100621.16;1085976;54;19951;-78
2022/09/22 00:28:25;;;;;;;;;;;;;;;9.49;69.83;100619.22;1085968;54;20576;-79
2022/09/22 00:29:30;;;;;;;;;;;;;;;9.49;69.53;100616.53;1085755;54;20575;-79
2022/09/22 00:30:31;;;;;;;;;;;;;;;9.49;69.73;100616.53;1085764;54;19961;-78
2022/09/22 00:31:35;;;;;;;;;;;;;;;9.48;69.59;100615.69;1085725;54;19983;-79
2022/09/22 00:32:37;;;;;;;;;;;;;;;9.48;69.78;100618.34;1085759;54;19950;-79
2022/09/22 00:33:42;;;;;;;;;;;;;;;9.44;69.79;100624.06;1086054;54;19997;-79
2022/09/22 00:34:43;;;;;;;;;;;;;;;9.44;70.12;100630.25;1085814;54;19953;-78
2022/09/22 00:35:47;;;;;;;;;;;;;;;9.35;70.13;100610.47;1085990;54;19946;-79
2022/09/22 00:36:51;;;;;;;;;;;;;;;9.42;70.16;100618.84;1085556;54;20726;-79
2022/09/22 00:37:53;;;;;;;;;;;;;;;9.42;70.16;100626.84;1085802;54;19947;-79
2022/09/22 00:38:58;;;;;;;;;;;;;;;9.43;69.91;100625.03;1085907;54;19973;-78
2022/09/22 00:39:59;;;;;;;;;;;;;;;9.44;69.86;100621.38;1085834;54;19947;-79
2022/09/22 00:41:07;;;;;;;;;;;;;;;9.42;70.17;100626.00;1087231;39;20433;-79
2022/09/22 00:42:10;;;;;;;;;;;;;;;9.43;70.15;100628.56;1085968;54;19957;-79
2022/09/22 00:43:15;;;;;;;;;;;;;;;9.40;70.00;100626.13;1086125;54;19946;-79
2022/09/22 00:44:29;;;;;;;;;;;;;;;9.40;70.23;100618.13;1085943;54;19985;-79
2022/09/22 00:45:33;;;;;;;;;;;;;;;9.42;69.83;100617.97;1085766;54;19962;-76
2022/09/22 00:46:35;;;;;;;;;;;;;;;9.43;70.22;100622.34;1085544;54;19955;-76
2022/09/22 00:47:41;;;;;;;;;;;;;;;9.42;70.05;100620.66;1086364;39;20333;-78
2022/09/22 00:48:45;;;;;;;;;;;;;;;9.39;70.13;100621.75;1086660;39;20247;-76
2022/09/22 00:49:52;;;;;;;;;;;;;;;9.38;70.08;100619.22;1085715;54;20767;-79
2022/09/22 00:50:55;;;;;;;;;;;;;;;9.36;69.97;100620.19;1085745;54;19942;-79
2022/09/22 00:51:59;;;;;;;;;;;;;;;9.39;69.91;100620.91;1086218;54;19950;-79
2022/09/22 00:53:02;;;;;;;;;;;;;;;9.36;70.09;100622.00;1086520;54;19947;-80
2022/09/22 00:54:08;;;;;;;;;;;;;;;9.37;70.03;100621.03;1086259;54;19951;-78
2022/09/22 00:55:12;;;;;;;;;;;;;;;9.36;70.26;100617.53;1086042;54;19950;-78
2022/09/22 00:56:22;;;;;;;;;;;;;;;9.34;70.00;100618.63;1088564;46;19951;-78
2022/09/22 00:57:26;;;;;;;;;;;;;;;9.35;69.90;100617.66;1086703;54;19954;-79
2022/09/22 00:58:31;;;;;;;;;;;;;;;9.31;69.95;100609.00;1087498;54;19950;-79
2022/09/22 00:59:32;;;;;;;;;;;;;;;9.33;69.85;100614.25;1088563;46;19951;-79
2022/09/22 01:00:38;;;;;;;;;;;;;;;9.32;69.81;100617.88;1088532;46;19942;-79
2022/09/22 01:01:39;;;;;;;;;;;;;;;9.31;70.19;100613.53;1088517;46;19949;-78
2022/09/22 01:02:43;;;;;;;;;;;;;;;9.30;70.01;100617.16;1087893;54;19946;-78
2022/09/22 01:03:45;;;;;;;;;;;;;;;9.23;70.67;100615.94;1087695;54;19954;-79
2022/09/22 01:04:51;;;;;;;;;;;;;;;9.26;70.42;100621.88;1087117;54;19951;-78
2022/09/22 01:05:54;;;;;;;;;;;;;;;9.24;70.31;100628.31;1087421;54;19927;-78
2022/09/22 01:06:59;;;;;;;;;;;;;;;9.19;70.99;100618.84;1087466;54;20022;-79
2022/09/22 01:08:01;;;;;;;;;;;;;;;9.18;70.78;100619.81;1087519;46;19947;-78
2022/09/22 01:09:05;;;;;;;;;;;;;;;9.16;70.90;100619.09;1085830;54;19957;-78
2022/09/22 01:10:06;;;;;;;;;;;;;;;9.18;70.94;100624.31;1085725;54;19946;-79
2022/09/22 01:11:12;;;;;;;;;;;;;;;9.13;71.10;100616.69;1085960;54;19947;-78
2022/09/22 01:12:15;;;;;;;;;;;;;;;9.14;70.81;100620.19;1085826;54;19962;-79
2022/09/22 01:13:24;;;;;;;;;;;;;;;9.14;70.85;100613.06;1085783;54;19939;-78
2022/09/22 01:14:32;;;;;;;;;;;;;;;9.14;71.01;100613.06;1086087;54;19947;-78
2022/09/22 01:15:41;;;;;;;;;;;;;;;9.12;70.93;100614.13;1085849;54;19943;-79
2022/09/22 01:16:48;;;;;;;;;;;;;;;9.05;71.94;100619.13;1085979;54;19946;-78
2022/09/22 01:17:59;;;;;;;;;;;;;;;9.03;71.68;100619.22;1085916;46;19950;-78
2022/09/22 01:19:14;;;;;;;;;;;;;;;9.00;71.99;100613.28;1086166;54;19950;-78
2022/09/22 01:20:30;;;;;;;;;;;;;;;8.99;72.05;100615.09;1085786;54;19973;-80
2022/09/22 01:21:42;;;;;;;;;;;;;;;9.01;71.77;100617.66;1085123;54;19938;-78
2022/09/22 01:23:05;;;;;;;;;;;;;;;8.98;71.89;100613.41;1085214;54;19950;-78
2022/09/22 01:24:23;;;;;;;;;;;;;;;8.98;71.60;100612.53;1085587;54;20002;-78
2022/09/22 01:25:38;;;;;;;;;;;;;;;8.96;71.63;100610.00;1085115;54;19947;-78
2022/09/22 01:26:54;;;;;;;;;;;;;;;8.93;71.92;100615.56;1085362;54;19954;-79
2022/09/22 01:28:18;;;;;;;;;;;;;;;8.89;71.86;100609.63;1085813;54;19947;-78
2022/09/22 01:29:33;;;;;;;;;;;;;;;8.90;71.96;100618.50;1086987;39;20686;-78
2022/09/22 01:30:45;;;;;;;;;;;;;;;8.88;71.99;100612.44;1086009;54;19973;-79
2022/09/22 01:31:51;;;;;;;;;;;;;;;8.84;72.29;100611.81;1085959;54;19957;-77
2022/09/22 01:33:00;;;;;;;;;;;;;;;8.84;72.05;100609.16;1085976;54;20744;-78
2022/09/22 01:34:06;;;;;;;;;;;;;;;8.84;72.08;100606.50;1086042;54;19950;-78
2022/09/22 01:35:13;;;;;;;;;;;;;;;8.84;71.75;100605.63;1085887;54;19953;-78
2022/09/22 01:36:22;;;;;;;;;;;;;;;8.80;72.25;100615.69;1085953;54;19947;-78
2022/09/22 01:37:25;;;;;;;;;;;;;;;8.78;72.10;100604.31;1086037;54;19951;-79
2022/09/22 01:38:33;;;;;;;;;;;;;;;8.77;72.04;100605.28;1086058;54;20074;-79
2022/09/22 01:39:38;;;;;;;;;;;;;;;8.72;72.36;100604.78;1086099;54;19946;-79
2022/09/22 01:40:44;;;;;;;;;;;;;;;8.72;72.06;100602.97;1085929;54;19974;-78
2022/09/22 01:41:50;;;;;;;;;;;;;;;8.71;72.35;100606.59;1086118;54;19973;-77
2022/09/22 01:42:56;;;;;;;;;;;;;;;8.67;72.49;100609.63;1086122;54;19946;-78
2022/09/22 01:44:00;;;;;;;;;;;;;;;8.61;73.22;100602.94;1086110;54;19981;-78
2022/09/22 01:45:08;;;;;;;;;;;;;;;8.55;73.17;100606.94;1086086;54;19951;-78
2022/09/22 01:46:15;;;;;;;;;;;;;;;8.52;73.05;100604.50;1085855;54;19951;-79
2022/09/22 01:47:21;;;;;;;;;;;;;;;8.52;72.96;100607.16;1085742;54;19947;-78
2022/09/22 01:48:24;;;;;;;;;;;;;;;8.51;72.94;100616.13;1087030;39;20376;-78
2022/09/22 01:49:29;;;;;;;;;;;;;;;8.52;73.03;100615.16;1086056;54;19988;-78
2022/09/22 01:50:33;;;;;;;;;;;;;;;8.53;73.02;100616.03;1086035;54;20042;-78
2022/09/22 01:51:40;;;;;;;;;;;;;;;8.52;72.85;100612.47;1085962;54;20520;-78
2022/09/22 01:52:42;;;;;;;;;;;;;;;8.52;72.77;100607.16;1086071;54;19951;-78
2022/09/22 01:53:48;;;;;;;;;;;;;;;8.52;72.60;100606.31;1086035;54;19974;-78
2022/09/22 01:54:53;;;;;;;;;;;;;;;8.50;72.79;100608.25;1085927;54;19946;-78
2022/09/22 01:55:58;;;;;;;;;;;;;;;8.50;72.45;100613.56;1086045;54;19950;-77
2022/09/22 01:57:04;;;;;;;;;;;;;;;8.51;72.57;100615.28;1085939;54;20014;-78
2022/09/22 01:58:10;;;;;;;;;;;;;;;8.44;73.28;100609.53;1085998;47;19957;-77
2022/09/22 01:59:14;;;;;;;;;;;;;;;8.46;73.09;100615.59;1086101;54;19939;-78
2022/09/22 02:00:18;;;;;;;;;;;;;;;8.45;72.84;100613.91;1086012;54;20493;-78
2022/09/22 02:01:24;;;;;;;;;;;;;;;8.47;72.66;100611.09;1086153;54;19950;-78
2022/09/22 02:02:31;;;;;;;;;;;;;;;8.46;72.53;100604.94;1085854;54;19947;-79
2022/09/22 02:03:35;;;;;;;;;;;;;;;8.49;72.60;100612.75;1086521;39;20364;-79
2022/09/22 02:04:43;;;;;;;;;;;;;;;8.50;72.49;100608.25;1086017;54;20046;-79
2022/09/22 02:05:47;;;;;;;;;;;;;;;8.49;72.63;100612.75;1085098;54;19954;-77
2022/09/22 02:06:54;;;;;;;;;;;;;;;8.48;72.52;100605.72;1085784;54;19998;-78
2022/09/22 02:07:57;;;;;;;;;;;;;;;8.42;73.02;100611.47;1086025;54;19973;-78
2022/09/22 02:09:03;;;;;;;;;;;;;;;8.39;72.97;100612.53;1085953;54;20051;-78
2022/09/22 02:10:07;;;;;;;;;;;;;;;8.40;73.03;100603.59;1085819;54;20015;-78
2022/09/22 02:11:13;;;;;;;;;;;;;;;8.39;72.72;100596.56;1086204;54;19997;-78
2022/09/22 02:12:17;;;;;;;;;;;;;;;8.40;72.79;100602.75;1086109;54;19981;-78
2022/09/22 02:13:21;;;;;;;;;;;;;;;8.41;72.81;100604.44;1086083;54;19947;-78
2022/09/22 02:14:22;;;;;;;;;;;;;;;8.40;72.98;100600.09;1085867;54;19946;-78
2022/09/22 02:16:45;;;;;;;;;;;;;;;8.39;73.06;100601.88;1085981;54;19951;-79
2022/09/22 02:17:46;;;;;;;;;;;;;;;8.32;73.51;100606.00;1085893;54;20551;-78
2022/09/22 02:18:52;;;;;;;;;;;;;;;8.31;73.30;100600.78;1086102;54;19950;-78
2022/09/22 02:19:53;;;;;;;;;;;;;;;8.33;73.19;100601.50;1087703;39;20388;-79
2022/09/22 02:20:57;;;;;;;;;;;;;;;8.33;73.07;100605.03;1085748;54;20541;-78
2022/09/22 02:21:59;;;;;;;;;;;;;;;8.34;73.27;100604.06;1085841;54;19946;-78
2022/09/22 02:23:03;;;;;;;;;;;;;;;8.33;73.38;100602.38;1085983;54;19947;-78
2022/09/22 02:24:04;;;;;;;;;;;;;;;8.32;73.39;100599.81;1085919;54;19974;-78
2022/09/22 02:25:09;;;;;;;;;;;;;;;8.31;73.10;100601.63;1085790;54;19993;-78
2022/09/22 02:26:10;;;;;;;;;;;;;;;8.28;73.65;100594.72;1085960;54;19973;-78
2022/09/22 02:27:19;;;;;;;;;;;;;;;8.24;73.85;100597.75;1085800;54;19957;-78
2022/09/22 02:28:21;;;;;;;;;;;;;;;8.22;74.07;100595.16;1085796;54;19958;-78
2022/09/22 02:29:26;;;;;;;;;;;;;;;8.08;74.60;100592.72;1085526;54;19950;-78
2022/09/22 02:30:27;;;;;;;;;;;;;;;8.07;74.87;100597.19;1085713;54;20869;-78
2022/09/22 02:31:34;;;;;;;;;;;;;;;7.97;75.02;100594.38;1086042;54;19951;-79
2022/09/22 02:32:39;;;;;;;;;;;;;;;7.94;75.06;100591.91;1085742;54;19951;-79
2022/09/22 02:33:42;;;;;;;;;;;;;;;7.92;75.33;100591.22;1085909;54;19973;-79
2022/09/22 02:34:45;;;;;;;;;;;;;;;7.90;75.24;100594.94;1085778;54;19981;-78
2022/09/22 02:35:50;;;;;;;;;;;;;;;7.86;75.43;100591.66;1085965;54;20177;-79
2022/09/22 02:36:55;;;;;;;;;;;;;;;7.79;76.06;100598.41;1085885;54;19939;-78
2022/09/22 02:38:01;;;;;;;;;;;;;;;7.79;75.86;100591.25;1086345;54;19958;-79
2022/09/22 02:39:05;;;;;;;;;;;;;;;7.79;75.81;100582.41;1086665;54;19955;-79
2022/09/22 02:40:12;;;;;;;;;;;;;;;7.81;75.36;100588.50;1087144;54;20224;-79
2022/09/22 02:41:16;;;;;;;;;;;;;;;7.80;75.70;100600.94;1086928;46;19950;-78
2022/09/22 02:42:27;;;;;;;;;;;;;;;7.83;75.68;100591.03;1086570;54;19949;-77
2022/09/22 02:43:32;;;;;;;;;;;;;;;7.73;75.60;100594.38;1086891;47;20346;-78
2022/09/22 02:44:38;;;;;;;;;;;;;;;7.71;75.54;100590.13;1086670;54;19942;-78
2022/09/22 02:45:44;;;;;;;;;;;;;;;7.67;75.71;100588.63;1087120;54;19942;-78
2022/09/22 02:46:51;;;;;;;;;;;;;;;7.68;75.17;100587.69;1088357;46;19949;-78
2022/09/22 02:47:59;;;;;;;;;;;;;;;7.70;75.43;100586.59;1086969;54;19977;-79
2022/09/22 02:49:02;;;;;;;;;;;;;;;7.69;74.96;100589.38;1086914;54;19950;-79
2022/09/22 02:50:09;;;;;;;;;;;;;;;7.73;75.09;100591.72;1087027;54;19951;-79
2022/09/22 02:51:13;;;;;;;;;;;;;;;7.73;74.74;100590.88;1086097;54;19947;-78
2022/09/22 02:52:16;;;;;;;;;;;;;;;7.69;75.11;100586.72;1085317;54;19973;-78
2022/09/22 02:53:17;;;;;;;;;;;;;;;7.72;74.70;100590.00;1085804;54;19943;-79
2022/09/22 02:54:21;;;;;;;;;;;;;;;7.76;74.59;100587.97;1085703;54;19963;-79
2022/09/22 02:55:22;;;;;;;;;;;;;;;7.76;74.80;100593.28;1085692;54;19946;-79
2022/09/22 02:56:26;;;;;;;;;;;;;;;7.77;74.67;100595.84;1085351;54;19969;-78
2022/09/22 02:57:27;;;;;;;;;;;;;;;7.82;74.48;100584.88;1085588;54;19993;-78
2022/09/22 02:58:32;;;;;;;;;;;;;;;7.86;74.00;100582.81;1085669;54;19993;-78
2022/09/22 02:59:33;;;;;;;;;;;;;;;7.86;73.96;100590.81;1085793;54;19951;-79
2022/09/22 03:00:37;;;;;;;;;;;;;;;7.87;73.71;100596.00;1086392;54;20002;-78
2022/09/22 03:01:38;;;;;;;;;;;;;;;7.87;73.79;100600.50;1086071;54;19946;-79
2022/09/22 03:02:42;;;;;;;;;;;;;;;7.81;73.90;100586.66;1086026;54;20018;-77
2022/09/22 03:03:45;;;;;;;;;;;;;;;7.82;74.36;100587.53;1085462;54;20838;-78
2022/09/22 03:04:50;;;;;;;;;;;;;;;7.84;73.95;100593.56;1085745;54;19966;-78
2022/09/22 03:05:51;;;;;;;;;;;;;;;7.82;74.17;100582.22;1085502;54;19962;-78
2022/09/22 03:06:55;;;;;;;;;;;;;;;7.78;74.38;100591.38;1084148;54;19950;-78
2022/09/22 03:07:59;;;;;;;;;;;;;;;7.73;74.94;100582.88;1085489;54;19942;-78
2022/09/22 03:09:00;;;;;;;;;;;;;;;7.74;74.56;100585.44;1088024;31;20435;-78
2022/09/22 03:10:04;;;;;;;;;;;;;;;7.76;74.15;100590.63;1085616;54;20433;-79
2022/09/22 03:11:05;;;;;;;;;;;;;;;7.78;74.29;100581.59;1085648;54;19951;-78
2022/09/22 03:12:09;;;;;;;;;;;;;;;7.80;74.36;100578.81;1085585;54;20002;-78
2022/09/22 03:13:10;;;;;;;;;;;;;;;7.79;73.99;100582.41;1085726;54;19989;-78
2022/09/22 03:14:14;;;;;;;;;;;;;;;7.78;74.44;100588.72;1085542;54;19946;-79
2022/09/22 03:15:15;;;;;;;;;;;;;;;7.80;74.35;100592.09;1085501;54;19950;-78
2022/09/22 03:16:18;;;;;;;;;;;;;;;7.83;74.30;100585.69;1085442;54;19968;-78
2022/09/22 03:17:19;;;;;;;;;;;;;;;7.79;74.21;100577.94;1085837;39;20040;-79
2022/09/22 03:18:23;;;;;;;;;;;;;;;7.82;74.17;100579.53;1085325;54;20034;-78
2022/09/22 03:19:27;;;;;;;;;;;;;;;7.83;73.75;100583.91;1085867;39;20355;-78
2022/09/22 03:20:31;;;;;;;;;;;;;;;7.87;73.96;100582.69;1085699;54;19951;-78
2022/09/22 03:21:32;;;;;;;;;;;;;;;7.86;73.80;100580.16;1085527;54;19947;-78
2022/09/22 03:22:36;;;;;;;;;;;;;;;7.87;73.92;100580.03;1085604;54;19950;-77
2022/09/22 03:23:37;;;;;;;;;;;;;;;7.89;73.64;100582.56;1085614;54;19950;-79
2022/09/22 03:24:41;;;;;;;;;;;;;;;7.87;73.57;100572.06;1085668;54;19966;-78
2022/09/22 03:25:42;;;;;;;;;;;;;;;7.88;73.58;100584.41;1085456;54;19981;-78
2022/09/22 03:26:45;;;;;;;;;;;;;;;7.82;73.91;100576.88;1085385;54;19947;-79
2022/09/22 03:27:47;;;;;;;;;;;;;;;7.84;73.64;100585.56;1088259;39;20372;-78
2022/09/22 03:28:50;;;;;;;;;;;;;;;7.83;73.88;100577.72;1085605;54;19962;-79
2022/09/22 03:29:51;;;;;;;;;;;;;;;7.81;74.11;100577.84;1085335;54;19997;-78
2022/09/22 03:30:55;;;;;;;;;;;;;;;7.79;74.08;100582.41;1085376;54;20940;-78
2022/09/22 03:31:56;;;;;;;;;;;;;;;7.78;74.05;100578.94;1085523;54;19947;-78
2022/09/22 03:33:00;;;;;;;;;;;;;;;7.78;74.45;100580.72;1085385;54;19958;-78
2022/09/22 03:34:04;;;;;;;;;;;;;;;7.81;74.11;100580.50;1085488;54;19978;-78
2022/09/22 03:35:08;;;;;;;;;;;;;;;7.74;74.65;100579.28;1085403;54;20524;-78
2022/09/22 03:36:12;;;;;;;;;;;;;;;7.74;74.46;100580.09;1085590;54;20015;-79
2022/09/22 03:37:13;;;;;;;;;;;;;;;7.74;74.64;100581.94;1085551;54;19973;-78
2022/09/22 03:38:17;;;;;;;;;;;;;;;7.77;74.56;100579.03;1085427;54;20035;-78
2022/09/22 03:39:18;;;;;;;;;;;;;;;7.77;74.37;100581.69;1085508;54;19947;-79
2022/09/22 03:40:22;;;;;;;;;;;;;;;7.77;74.53;100579.03;1085566;54;19962;-79
2022/09/22 03:41:24;;;;;;;;;;;;;;;7.79;74.26;100582.41;1085518;54;19954;-79
2022/09/22 03:42:27;;;;;;;;;;;;;;;7.79;74.23;100577.09;1085576;54;19950;-78
2022/09/22 03:43:28;;;;;;;;;;;;;;;7.81;74.28;100572.53;1085645;54;19951;-78
2022/09/22 03:44:32;;;;;;;;;;;;;;;7.80;74.34;100571.66;1085538;54;19958;-78
2022/09/22 03:45:34;;;;;;;;;;;;;;;7.78;74.27;100570.06;1085714;54;19946;-78
2022/09/22 03:46:38;;;;;;;;;;;;;;;7.81;74.10;100577.84;1085365;54;19950;-78
2022/09/22 03:47:39;;;;;;;;;;;;;;;7.81;74.01;100577.84;1085509;54;19958;-78
2022/09/22 03:48:42;;;;;;;;;;;;;;;7.81;73.82;100570.69;1085630;54;20011;-79
2022/09/22 03:49:43;;;;;;;;;;;;;;;7.81;73.74;100584.00;1085506;54;19951;-78
2022/09/22 03:50:50;;;;;;;;;;;;;;;7.81;73.46;100584.00;1085480;54;19958;-78
2022/09/22 03:51:51;;;;;;;;;;;;;;;7.78;73.70;100578.94;1085492;54;19942;-78
2022/09/22 03:52:55;;;;;;;;;;;;;;;7.77;73.93;100579.03;1085661;54;20054;-79
2022/09/22 03:53:56;;;;;;;;;;;;;;;7.74;74.09;100581.94;1085997;39;20424;-78
2022/09/22 03:55:01;;;;;;;;;;;;;;;7.76;73.93;100574.66;1088209;31;20463;-79
2022/09/22 03:56:06;;;;;;;;;;;;;;;7.76;73.93;100577.31;1085881;54;20436;-78
2022/09/22 03:57:10;;;;;;;;;;;;;;;7.73;74.10;100572.25;1085917;54;20193;-78
2022/09/22 03:58:11;;;;;;;;;;;;;;;7.72;73.90;100575.84;1088137;39;20395;-78
2022/09/22 03:59:19;;;;;;;;;;;;;;;7.72;74.21;100570.53;1087139;54;19957;-78
2022/09/22 04:00:20;;;;;;;;;;;;;;;7.74;73.80;100573.94;1087501;54;19943;-78
2022/09/22 04:01:32;;;;;;;;;;;;;;;7.72;73.79;100574.03;1087498;47;19934;-78
2022/09/22 04:02:33;;;;;;;;;;;;;;;7.72;73.81;100570.53;1087517;54;19955;-78
2022/09/22 04:03:37;;;;;;;;;;;;;;;7.74;73.58;100565.97;1087400;54;19957;-79
2022/09/22 04:04:38;;;;;;;;;;;;;;;7.76;73.54;100572.00;1087517;54;19954;-79
2022/09/22 04:05:42;;;;;;;;;;;;;;;7.74;73.83;100569.47;1087387;54;20002;-79
2022/09/22 04:06:46;;;;;;;;;;;;;;;7.74;73.70;100571.28;1088370;39;20287;-79
2022/09/22 04:07:49;;;;;;;;;;;;;;;7.71;73.69;100564.34;1086602;54;20892;-78
2022/09/22 04:08:51;;;;;;;;;;;;;;;7.70;74.06;100564.47;1088985;46;19947;-78
2022/09/22 04:09:55;;;;;;;;;;;;;;;7.71;73.86;100572.34;1087061;54;19943;-78
2022/09/22 04:10:56;;;;;;;;;;;;;;;7.73;73.67;100567.75;1086916;54;19951;-78
2022/09/22 04:12:00;;;;;;;;;;;;;;;7.71;73.84;100574.16;1086578;54;19938;-79
2022/09/22 04:13:01;;;;;;;;;;;;;;;7.73;73.89;100566.91;1085459;54;19969;-78
2022/09/22 04:14:05;;;;;;;;;;;;;;;7.71;73.63;100568.84;1085798;54;19947;-79
2022/09/22 04:15:07;;;;;;;;;;;;;;;7.74;73.91;100573.94;1085792;54;19965;-79
2022/09/22 04:16:10;;;;;;;;;;;;;;;7.73;73.60;100570.41;1085501;54;20104;-79
2022/09/22 04:17:12;;;;;;;;;;;;;;;7.73;73.62;100561.59;1086038;39;20442;-78
2022/09/22 04:18:16;;;;;;;;;;;;;;;7.75;73.66;100567.63;1085774;54;19957;-78
2022/09/22 04:19:18;;;;;;;;;;;;;;;7.76;73.54;100567.53;1086427;39;20707;-78
2022/09/22 04:20:22;;;;;;;;;;;;;;;7.76;73.63;100566.66;1085560;54;20620;-78
2022/09/22 04:21:23;;;;;;;;;;;;;;;7.76;73.58;100562.22;1085679;54;19947;-77
2022/09/22 04:22:29;;;;;;;;;;;;;;;7.73;73.46;100558.94;1085854;54;19973;-79
2022/09/22 04:23:30;;;;;;;;;;;;;;;7.71;73.53;100558.19;1085621;54;19953;-78
2022/09/22 04:24:35;;;;;;;;;;;;;;;7.74;73.56;100563.31;1086231;54;20037;-78
2022/09/22 04:25:36;;;;;;;;;;;;;;;7.75;73.55;100559.66;1086467;54;19946;-78
2022/09/22 04:26:40;;;;;;;;;;;;;;;7.75;73.39;100562.31;1086659;54;19950;-78
2022/09/22 04:27:41;;;;;;;;;;;;;;;7.68;73.84;100559.28;1086824;54;19950;-78
2022/09/22 04:28:46;;;;;;;;;;;;;;;7.60;74.51;100567.81;1086854;54;19938;-78
2022/09/22 04:29:47;;;;;;;;;;;;;;;7.62;73.89;100565.03;1086652;47;19942;-79
2022/09/22 04:30:51;;;;;;;;;;;;;;;7.61;73.86;100563.31;1086631;54;20173;-78
2022/09/22 04:31:52;;;;;;;;;;;;;;;7.58;74.34;100567.06;1086966;54;19942;-78
2022/09/22 04:32:57;;;;;;;;;;;;;;;7.59;74.27;100563.44;1087148;47;20031;-78
2022/09/22 04:33:58;;;;;;;;;;;;;;;7.53;74.47;100566.56;1086804;54;19993;-78
2022/09/22 04:35:04;;;;;;;;;;;;;;;7.51;74.71;100567.66;1086958;54;19950;-79
2022/09/22 04:36:06;;;;;;;;;;;;;;;7.51;74.63;100565.81;1086777;54;20022;-79
2022/09/22 04:37:12;;;;;;;;;;;;;;;7.54;74.26;100570.06;1086988;47;19942;-79
2022/09/22 04:38:16;;;;;;;;;;;;;;;7.48;75.32;100568.69;1086611;54;19973;-78
2022/09/22 04:39:20;;;;;;;;;;;;;;;7.49;74.76;100565.09;1086569;54;19923;-78
2022/09/22 04:40:21;;;;;;;;;;;;;;;7.52;74.75;100569.31;1089460;39;20348;-78
2022/09/22 04:41:25;;;;;;;;;;;;;;;7.53;74.38;100571.03;1086809;47;20030;-78
2022/09/22 04:42:26;;;;;;;;;;;;;;;7.56;74.52;100571.66;1085624;54;19954;-78
2022/09/22 04:43:30;;;;;;;;;;;;;;;7.53;74.66;100571.91;1086009;54;19979;-78
2022/09/22 04:44:31;;;;;;;;;;;;;;;7.55;74.63;100575.31;1087667;39;20336;-79
2022/09/22 04:45:35;;;;;;;;;;;;;;;7.56;74.72;100568.16;1086451;54;19972;-79
2022/09/22 04:46:36;;;;;;;;;;;;;;;7.57;74.36;100568.03;1086193;54;19946;-79
2022/09/22 04:47:40;;;;;;;;;;;;;;;7.57;74.82;100569.84;1086024;54;19946;-77
2022/09/22 04:48:41;;;;;;;;;;;;;;;7.61;74.17;100571.31;1086335;54;19951;-79
2022/09/22 04:49:44;;;;;;;;;;;;;;;7.62;74.28;100576.53;1086487;54;19942;-78
2022/09/22 04:50:45;;;;;;;;;;;;;;;7.65;74.11;100573.63;1086492;54;19950;-78
2022/09/22 04:51:49;;;;;;;;;;;;;;;7.63;74.13;100570.25;1086652;54;19946;-79
2022/09/22 04:52:51;;;;;;;;;;;;;;;7.65;74.00;100570.97;1086325;54;19954;-78
2022/09/22 04:53:58;;;;;;;;;;;;;;;7.68;73.74;100569.06;1086690;54;19946;-78
2022/09/22 04:54:59;;;;;;;;;;;;;;;7.69;74.05;100573.41;1086424;54;19973;-79
2022/09/22 04:56:03;;;;;;;;;;;;;;;7.68;73.81;100561.06;1086229;54;19950;-78
2022/09/22 04:57:04;;;;;;;;;;;;;;;7.56;74.29;100566.31;1086536;54;19994;-79
2022/09/22 04:58:08;;;;;;;;;;;;;;;7.35;75.03;100571.41;1086389;31;20447;-78
2022/09/22 04:59:13;;;;;;;;;;;;;;;7.20;75.75;100570.69;1086444;54;19957;-77
2022/09/22 05:00:15;;;;;;;;;;;;;;;7.11;76.08;100568.69;1087048;54;19966;-78
2022/09/22 05:01:19;;;;;;;;;;;;;;;7.04;76.45;100578.91;1086041;54;20712;-78
2022/09/22 05:02:20;;;;;;;;;;;;;;;6.95;76.98;100579.56;1086488;54;19951;-77
2022/09/22 05:03:24;;;;;;;;;;;;;;;6.87;77.40;100573.00;1085876;54;19958;-78
2022/09/22 05:04:25;;;;;;;;;;;;;;;6.76;77.72;100578.19;1085329;54;20881;-78
2022/09/22 05:05:28;;;;;;;;;;;;;;;6.70;77.97;100581.31;1085579;54;19950;-78
2022/09/22 05:06:30;;;;;;;;;;;;;;;6.64;78.29;100574.59;1085321;54;19947;-78
2022/09/22 05:07:36;;;;;;;;;;;;;;;6.63;78.52;100585.34;1085407;54;19959;-78
2022/09/22 05:08:37;;;;;;;;;;;;;;;6.56;78.42;100582.25;1084662;54;21573;-78
2022/09/22 05:09:43;;;;;;;;;;;;;;;6.55;78.74;100585.88;1084866;54;21001;-78
2022/09/22 05:10:45;;;;;;;;;;;;;;;6.49;78.97;100578.31;1085399;54;19950;-79
2022/09/22 05:11:49;;;;;;;;;;;;;;;6.45;79.49;100580.34;1085336;54;19939;-77
2022/09/22 05:12:51;;;;;;;;;;;;;;;6.43;79.62;100581.38;1085176;54;20844;-78
2022/09/22 05:13:54;;;;;;;;;;;;;;;6.40;79.46;100582.44;1085555;54;19938;-78
2022/09/22 05:14:59;;;;;;;;;;;;;;;6.44;79.71;100585.75;1087190;39;20427;-78
2022/09/22 05:16:03;;;;;;;;;;;;;;;6.40;79.87;100580.66;1086072;54;19958;-78
2022/09/22 05:17:05;;;;;;;;;;;;;;;6.37;79.81;100591.50;1086327;54;19950;-77
2022/09/22 05:18:09;;;;;;;;;;;;;;;6.35;79.87;100585.41;1086680;54;19927;-79
2022/09/22 05:19:10;;;;;;;;;;;;;;;6.37;80.01;100588.00;1086235;54;19943;-78
2022/09/22 05:20:14;;;;;;;;;;;;;;;6.39;79.69;100591.38;1088399;47;19997;-78
2022/09/22 05:21:18;;;;;;;;;;;;;;;6.38;79.83;100585.22;1086219;54;19951;-78
2022/09/22 05:22:21;;;;;;;;;;;;;;;6.37;79.85;100594.13;1088423;39;19969;-79
2022/09/22 05:23:25;;;;;;;;;;;;;;;6.33;79.93;100597.94;1086565;47;19942;-78
2022/09/22 05:24:29;;;;;;;;;;;;;;;6.27;79.88;100592.22;1086752;47;19938;-78
2022/09/22 05:25:36;;;;;;;;;;;;;;;6.23;80.23;100599.56;1086035;47;19993;-75
2022/09/22 05:26:37;;;;;;;;;;;;;;;6.24;79.96;100599.44;1086335;39;20423;-75
2022/09/22 05:27:44;;;;;;;;;;;;;;;6.27;79.84;100593.06;1085814;54;20003;-79
2022/09/22 05:28:50;;;;;;;;;;;;;;;6.23;80.41;100603.03;1085627;54;20030;-76
2022/09/22 05:29:51;;;;;;;;;;;;;;;6.26;80.33;100599.31;1086328;39;20431;-76
2022/09/22 05:30:55;;;;;;;;;;;;;;;6.28;79.99;100608.03;1086000;54;19954;-76
2022/09/22 05:31:56;;;;;;;;;;;;;;;6.29;80.04;100601.78;1086913;47;20393;-76
2022/09/22 05:33:00;;;;;;;;;;;;;;;6.33;80.03;100613.88;1086071;54;19957;-77
2022/09/22 05:34:01;;;;;;;;;;;;;;;6.31;79.81;100610.50;1085826;54;20043;-76
2022/09/22 05:35:04;;;;;;;;;;;;;;;6.32;79.93;100603.38;1085776;54;19993;-76
2022/09/22 05:36:08;;;;;;;;;;;;;;;6.30;79.97;100613.25;1085458;54;19958;-77